Time;durP1;ratioP1;P1;durP2;ratioP2;P2;SDS_P1;SDS_P2;PMS_P1;PMS_P2;Temp;Humidity;BMP_temperature;BMP_pressure;BME280_temperature;BME280_humidity;BME280_pressure;Samples;Min_cycle;Max_cycle;Signal;HPM_P1;HPM_P2
2021/09/12 00:01:09;;;;;;;16.12;8.90;;;;;;;17.22;56.39;101149.59;1734626;82;20992;-85
2021/09/12 00:03:37;;;;;;;18.73;9.68;;;;;;;17.19;56.59;101153.80;1734908;82;20997;-87
2021/09/12 00:06:04;;;;;;;17.15;9.05;;;;;;;17.14;56.78;101150.24;1734474;82;21154;-87
2021/09/12 00:08:30;;;;;;;13.98;9.65;;;;;;;17.11;56.96;101148.36;1734773;82;20885;-87
2021/09/12 00:10:59;;;;;;;17.17;10.00;;;;;;;17.08;57.17;101148.14;1734466;82;20987;-81
2021/09/12 00:13:25;;;;;;;14.10;9.38;;;;;;;17.06;57.32;101152.70;1734556;82;21490;-86
2021/09/12 00:15:53;;;;;;;13.58;8.70;;;;;;;17.04;57.40;101148.55;1734549;82;20901;-86
2021/09/12 00:18:21;;;;;;;14.13;9.18;;;;;;;17.00;57.52;101157.63;1734246;82;21189;-85
2021/09/12 00:20:49;;;;;;;15.70;8.55;;;;;;;16.97;57.65;101148.72;1734352;82;20857;-86
2021/09/12 00:23:16;;;;;;;15.40;9.58;;;;;;;16.96;57.82;101147.88;1734611;82;20948;-87
2021/09/12 00:25:44;;;;;;;21.27;9.50;;;;;;;16.96;57.93;101144.42;1734438;82;20984;-86
2021/09/12 00:28:12;;;;;;;16.87;8.50;;;;;;;16.94;58.13;101143.27;1734609;82;21038;-84
2021/09/12 00:30:42;;;;;;;16.77;10.15;;;;;;;16.93;58.29;101141.59;1734554;82;20884;-87
2021/09/12 00:33:08;;;;;;;17.00;9.50;;;;;;;16.90;58.56;101138.76;1734562;82;20857;-80
2021/09/12 00:35:35;;;;;;;16.37;9.05;;;;;;;16.88;58.68;101134.58;1734345;82;20991;-81
2021/09/12 00:38:02;;;;;;;12.07;9.23;;;;;;;16.84;58.81;101130.10;1734457;82;21609;-85
2021/09/12 00:40:28;;;;;;;11.80;8.68;;;;;;;16.83;58.85;101131.05;1734711;82;20893;-85
2021/09/12 00:42:55;;;;;;;19.95;9.33;;;;;;;16.80;58.79;101130.48;1734835;82;21154;-81
2021/09/12 00:45:22;;;;;;;17.57;9.23;;;;;;;16.79;58.75;101127.50;1734932;82;21736;-85
2021/09/12 00:47:48;;;;;;;18.85;9.28;;;;;;;16.77;58.65;101130.27;1734921;82;20912;-86
2021/09/12 00:50:16;;;;;;;19.17;8.45;;;;;;;16.76;58.62;101128.59;1734401;82;20952;-84
2021/09/12 00:52:46;;;;;;;16.30;9.38;;;;;;;16.75;58.59;101127.43;1735042;82;21003;-85
2021/09/12 00:55:13;;;;;;;14.95;8.93;;;;;;;16.73;58.54;101125.40;1735684;82;21147;-86
2021/09/12 00:57:44;;;;;;;19.92;8.15;;;;;;;16.73;58.47;101128.85;1735876;82;21408;-85
2021/09/12 01:00:13;;;;;;;15.53;9.35;;;;;;;16.72;58.41;101129.80;1735733;82;21003;-86
2021/09/12 01:02:43;;;;;;;13.43;9.10;;;;;;;16.70;58.36;101126.50;1735542;82;20983;-86
2021/09/12 01:05:11;;;;;;;19.27;8.63;;;;;;;16.70;58.23;101125.19;1735460;82;20925;-84
2021/09/12 01:07:40;;;;;;;16.25;8.58;;;;;;;16.67;58.25;101121.52;1735825;82;21131;-87
2021/09/12 01:10:10;;;;;;;13.30;9.13;;;;;;;16.65;58.19;101124.75;1735755;82;21392;-84
2021/09/12 01:12:37;;;;;;;17.57;8.78;;;;;;;16.64;58.19;101125.70;1735648;82;20908;-84
2021/09/12 01:15:10;;;;;;;14.13;8.70;;;;;;;16.63;58.18;101123.19;1736503;82;20920;-89
2021/09/12 01:17:43;;;;;;;14.50;9.60;;;;;;;16.59;58.23;101123.12;1736985;82;20983;-87
2021/09/12 01:20:12;;;;;;;18.02;8.90;;;;;;;16.55;58.26;101119.09;1737244;82;21105;-88
2021/09/12 01:22:40;;;;;;;14.45;8.65;;;;;;;16.51;58.32;101115.86;1715834;82;20857;-84
2021/09/12 01:25:08;;;;;;;16.45;8.88;;;;;;;16.49;58.36;101120.41;1736360;82;20893;-84
2021/09/12 01:27:34;;;;;;;16.70;8.58;;;;;;;16.46;58.43;101121.98;1737191;82;20940;-86
2021/09/12 01:30:01;;;;;;;29.82;9.75;;;;;;;16.43;58.50;101113.87;1735754;82;21637;-88
2021/09/12 01:32:28;;;;;;;27.00;9.25;;;;;;;16.41;58.55;101115.80;1735760;82;21157;-84
2021/09/12 01:34:55;;;;;;;18.20;8.80;;;;;;;16.40;58.56;101112.81;1735448;82;21502;-88
2021/09/12 01:37:22;;;;;;;16.57;9.20;;;;;;;16.40;58.58;101114.59;1735279;82;21027;-85
2021/09/12 01:39:50;;;;;;;17.20;9.20;;;;;;;16.37;58.57;101110.45;1735264;82;20956;-84
2021/09/12 01:42:18;;;;;;;18.30;9.90;;;;;;;16.36;58.59;101115.36;1735504;82;20967;-87
2021/09/12 01:44:51;;;;;;;17.15;8.85;;;;;;;16.35;58.59;101112.38;1736163;82;21080;-88
2021/09/12 01:47:17;;;;;;;;;;;;;;;16.33;58.64;101114.78;1739876;82;20912;-85
2021/09/12 01:49:48;;;;;;;14.13;7.85;;;;;;;16.30;58.66;101109.80;1736587;82;20115;-85
2021/09/12 01:52:15;;;;;;;17.25;8.30;;;;;;;16.27;58.74;101112.67;1735802;82;20985;-87
2021/09/12 01:54:42;;;;;;;18.85;8.95;;;;;;;16.25;58.80;101108.02;1735395;82;20976;-87
2021/09/12 01:57:09;;;;;;;14.35;8.13;;;;;;;16.23;58.88;101103.40;1735947;82;21190;-85
2021/09/12 01:59:36;;;;;;;16.93;8.83;;;;;;;16.24;58.94;101114.23;1735113;82;20909;-87
2021/09/12 02:02:04;;;;;;;19.48;8.88;;;;;;;16.22;59.01;101107.80;1734794;82;21555;-84
2021/09/12 02:04:30;;;;;;;17.90;8.85;;;;;;;16.22;59.02;101109.58;1734766;82;21515;-88
2021/09/12 02:06:56;;;;;;;12.00;7.95;;;;;;;16.22;59.08;101110.42;1734652;82;20845;-83
2021/09/12 02:09:26;;;;;;;21.87;8.50;;;;;;;16.24;59.11;101116.85;1734457;82;21977;-84
2021/09/12 02:11:52;;;;;;;16.27;8.78;;;;;;;16.23;59.13;101112.09;1734321;82;21331;-84
2021/09/12 02:14:19;;;;;;;18.45;8.45;;;;;;;16.24;59.20;101119.47;1734616;82;21484;-83
2021/09/12 02:16:48;;;;;;;15.95;8.93;;;;;;;16.24;59.25;101120.27;1734575;82;20976;-87
2021/09/12 02:19:15;;;;;;;14.50;8.58;;;;;;;16.23;59.32;101116.02;1734368;82;20952;-85
2021/09/12 02:21:41;;;;;;;18.20;8.73;;;;;;;16.24;59.29;101117.66;1734286;82;21105;-82
2021/09/12 02:24:08;;;;;;;12.85;8.45;;;;;;;16.27;59.32;101113.98;1734455;82;21515;-89
2021/09/12 02:26:35;;;;;;;12.65;9.33;;;;;;;16.30;59.34;101107.17;1734446;82;20976;-87
2021/09/12 02:29:02;;;;;;;15.18;8.28;;;;;;;16.33;59.32;101116.92;1737357;82;21054;-82
2021/09/12 02:31:29;;;;;;;15.20;9.28;;;;;;;16.33;59.33;101110.38;1736858;82;20936;-85
2021/09/12 02:33:56;;;;;;;15.68;8.95;;;;;;;16.35;59.36;101107.61;1735413;82;21045;-82
2021/09/12 02:36:22;;;;;;;16.55;8.68;;;;;;;16.35;59.43;101112.38;1734309;82;20975;-82
2021/09/12 02:38:49;;;;;;;21.65;9.55;;;;;;;16.36;59.50;101115.36;1734388;82;21523;-84
2021/09/12 02:41:15;;;;;;;19.67;9.58;;;;;;;16.37;59.61;101107.83;1734518;82;20988;-83
2021/09/12 02:43:42;;;;;;;18.40;10.75;;;;;;;16.36;59.73;101110.59;1734405;82;21614;-83
2021/09/12 02:46:09;;;;;;;16.87;9.68;;;;;;;16.34;59.88;101116.42;1734362;82;21150;-82
2021/09/12 02:48:35;;;;;;;20.27;9.70;;;;;;;16.29;60.13;101112.89;1734495;82;20976;-84
2021/09/12 02:51:04;;;;;;;21.60;9.78;;;;;;;16.25;60.48;101115.40;1734355;82;20964;-84
2021/09/12 02:53:32;;;;;;;14.80;10.40;;;;;;;16.21;60.90;101113.98;1734052;82;21099;-84
2021/09/12 02:55:59;;;;;;;18.50;10.20;;;;;;;16.15;61.05;101111.87;1734708;82;21447;-85
2021/09/12 02:58:27;;;;;;;20.75;10.80;;;;;;;16.15;61.26;101114.97;1734318;82;20976;-86
2021/09/12 03:00:55;;;;;;;19.52;10.15;;;;;;;16.12;61.42;101114.74;1734543;82;20980;-85
2021/09/12 03:03:23;;;;;;;17.15;10.05;;;;;;;16.10;61.69;101110.59;1734210;82;21003;-82
2021/09/12 03:05:50;;;;;;;19.55;11.60;;;;;;;16.06;62.22;101114.41;1734510;82;21004;-84
2021/09/12 03:08:18;;;;;;;20.82;11.12;;;;;;;15.98;63.07;101114.22;1734285;82;20885;-86
2021/09/12 03:10:45;;;;;;;19.52;11.10;;;;;;;15.88;64.01;101112.35;1734366;82;21738;-87
2021/09/12 03:13:13;;;;;;;17.98;10.70;;;;;;;15.82;64.17;101119.39;1734577;82;21327;-88
2021/09/12 03:15:40;;;;;;;23.22;11.00;;;;;;;15.78;64.49;101117.13;1734508;82;21435;-86
2021/09/12 03:18:06;;;;;;;23.75;11.20;;;;;;;15.76;64.84;101115.94;1734654;82;20905;-87
2021/09/12 03:20:37;;;;;;;29.82;12.55;;;;;;;15.77;64.85;101125.45;1734646;82;21046;-86
2021/09/12 03:23:09;;;;;;;22.87;12.68;;;;;;;15.78;64.94;101127.12;1734546;82;21146;-86
2021/09/12 03:25:38;;;;;;;23.02;13.58;;;;;;;15.77;64.92;101125.45;1713238;82;20954;-83
2021/09/12 03:28:04;;;;;;;23.07;13.98;;;;;;;15.77;64.95;101123.31;1717097;82;20964;-82
2021/09/12 03:30:31;;;;;;;23.90;12.70;;;;;;;15.76;65.14;101130.83;1699028;84;21460;-87
2021/09/12 03:32:57;;;;;;;25.40;12.03;;;;;;;15.74;65.16;101132.25;1699279;84;20960;-84
2021/09/12 03:35:25;;;;;;;25.60;11.80;;;;;;;15.72;65.32;101132.02;1698952;84;21140;-83
2021/09/12 03:37:53;;;;;;;17.85;11.05;;;;;;;15.69;65.70;101131.80;1699339;84;20964;-86
2021/09/12 03:40:20;;;;;;;20.50;11.73;;;;;;;15.66;66.05;101127.28;1699339;84;21388;-88
2021/09/12 03:42:46;;;;;;;20.75;12.37;;;;;;;15.65;66.21;101128.22;1699263;84;20977;-83
2021/09/12 03:45:13;;;;;;;19.00;11.08;;;;;;;15.62;66.64;101128.00;1699224;84;21491;-87
2021/09/12 03:47:39;;;;;;;22.17;11.33;;;;;;;15.62;66.94;101137.63;1699265;84;21125;-88
2021/09/12 03:50:09;;;;;;;19.95;10.60;;;;;;;15.64;67.38;101139.63;1699765;84;20933;-88
2021/09/12 03:52:38;;;;;;;18.10;11.00;;;;;;;15.66;67.80;101141.20;1698871;84;20956;-88
2021/09/12 03:55:08;;;;;;;19.25;11.05;;;;;;;15.68;68.03;101137.13;1699179;84;20984;-85
2021/09/12 03:57:35;;;;;;;20.80;12.63;;;;;;;15.70;68.19;101145.68;1698822;84;20980;-85
2021/09/12 04:00:07;;;;;;;26.48;13.68;;;;;;;15.69;68.46;101133.10;1700013;84;21140;-80
2021/09/12 04:02:36;;;;;;;20.25;14.90;;;;;;;15.70;68.81;101139.14;1680548;84;20992;-89
2021/09/12 04:05:03;;;;;;;24.02;13.03;;;;;;;15.70;69.08;101132.13;1700193;84;20948;-84
2021/09/12 04:07:31;;;;;;;20.08;12.53;;;;;;;15.72;69.31;101141.17;1699742;84;21743;-85
2021/09/12 04:09:58;;;;;;;21.07;12.63;;;;;;;15.73;69.52;101143.66;1700127;84;20924;-87
2021/09/12 04:12:25;;;;;;;25.45;12.60;;;;;;;15.77;69.79;101144.25;1699399;84;21751;-90
2021/09/12 04:14:53;;;;;;;22.00;12.65;;;;;;;15.80;69.96;101146.14;1699325;84;21004;-86
2021/09/12 04:17:21;;;;;;;23.00;12.58;;;;;;;15.82;70.22;101143.42;1699255;84;20908;-86
2021/09/12 04:19:51;;;;;;;20.17;13.48;;;;;;;15.83;70.40;101143.28;1699339;84;20984;-85
2021/09/12 04:22:18;;;;;;;22.00;12.90;;;;;;;15.85;70.80;101141.86;1698996;84;21475;-89
2021/09/12 04:24:45;;;;;;;26.48;12.88;;;;;;;15.87;71.53;101142.09;1699052;84;21977;-88
2021/09/12 04:27:20;;;;;;;17.07;12.40;;;;;;;15.89;72.08;101143.26;1700319;83;21039;-89
2021/09/12 04:29:45;;;;;;;19.92;13.08;;;;;;;15.93;72.51;101145.16;1718787;83;20991;-83
2021/09/12 04:32:13;;;;;;;29.40;13.53;;;;;;;15.95;73.00;101146.72;1728766;82;21023;-83
2021/09/12 04:34:43;;;;;;;24.87;13.22;;;;;;;15.97;73.08;101144.80;1734889;82;20857;-87
2021/09/12 04:37:12;;;;;;;28.02;14.18;;;;;;;15.99;73.11;101148.58;1734433;82;20948;-89
2021/09/12 04:39:40;;;;;;;25.88;13.32;;;;;;;16.00;72.96;101146.33;1734323;82;20991;-81
2021/09/12 04:42:07;;;;;;;28.40;13.85;;;;;;;16.01;72.72;101148.84;1734934;82;21495;-87
2021/09/12 04:44:33;;;;;;;36.40;12.45;;;;;;;16.04;72.32;101153.83;1734682;82;21019;-79
2021/09/12 04:47:02;;;;;;;26.23;12.80;;;;;;;16.07;71.97;101152.73;1734900;82;20913;-80
2021/09/12 04:49:31;;;;;;;25.27;12.45;;;;;;;16.11;71.49;101158.09;1735076;82;21146;-92
2021/09/12 04:51:58;;;;;;;23.12;12.25;;;;;;;16.13;71.24;101153.55;1735044;82;21499;-88
2021/09/12 04:54:26;;;;;;;22.90;11.95;;;;;;;16.13;70.95;101147.83;1734866;82;20952;-87
2021/09/12 04:56:56;;;;;;;21.82;12.58;;;;;;;16.14;70.64;101146.89;1735331;82;21056;-90
2021/09/12 04:59:23;;;;;;;18.98;10.78;;;;;;;16.18;70.55;101152.20;1734087;82;21063;-87
2021/09/12 05:01:51;;;;;;;29.32;12.45;;;;;;;16.23;70.54;101152.68;1734607;82;20881;-88
2021/09/12 05:04:19;;;;;;;23.30;11.55;;;;;;;16.29;70.38;101152.17;1734889;82;20896;-88
2021/09/12 05:06:46;;;;;;;32.28;12.70;;;;;;;16.37;70.22;101151.52;1734654;82;20996;-85
2021/09/12 05:09:13;;;;;;;30.30;11.85;;;;;;;16.44;70.11;101159.23;1734678;82;21067;-86
2021/09/12 05:11:39;;;;;;;23.30;13.03;;;;;;;16.49;70.02;101151.84;1734642;82;20952;-86
2021/09/12 05:14:08;;;;;;;29.70;12.90;;;;;;;16.57;69.87;101148.60;1734931;82;20892;-85
2021/09/12 05:16:34;;;;;;;25.48;12.70;;;;;;;16.63;69.51;101148.92;1716013;82;20957;-84
2021/09/12 05:19:02;;;;;;;34.05;13.30;;;;;;;16.69;69.31;101145.78;1734686;82;20964;-90
2021/09/12 05:21:31;;;;;;;24.00;11.75;;;;;;;16.78;69.01;101147.63;1734830;82;21565;-89
2021/09/12 05:23:59;;;;;;;18.95;12.10;;;;;;;16.89;68.81;101154.12;1734754;82;21413;-90
2021/09/12 05:26:27;;;;;;;21.37;12.37;;;;;;;17.00;68.42;101153.23;1734900;82;20983;-89
2021/09/12 05:28:54;;;;;;;23.32;11.40;;;;;;;17.12;68.13;101155.27;1736800;82;20944;-86
2021/09/12 05:31:21;;;;;;;22.62;11.80;;;;;;;17.21;67.83;101154.00;1737775;82;20975;-85
2021/09/12 05:33:49;;;;;;;29.18;12.20;;;;;;;17.31;67.35;101156.67;1738565;82;20965;-86
2021/09/12 05:36:17;;;;;;;28.45;12.25;;;;;;;17.39;67.17;101160.28;1740133;82;21531;-88
2021/09/12 05:38:44;;;;;;;25.68;11.88;;;;;;;17.48;66.80;101153.42;1739614;82;21172;-82
2021/09/12 05:41:11;;;;;;;26.77;12.68;;;;;;;17.58;66.45;101147.73;1739055;82;20937;-87
2021/09/12 05:43:37;;;;;;;21.20;12.65;;;;;;;17.66;66.23;101156.25;1739114;82;20957;-87
2021/09/12 05:46:05;;;;;;;17.73;12.18;;;;;;;17.73;65.80;101155.59;1739167;82;20955;-90
2021/09/12 05:48:33;;;;;;;25.43;11.93;;;;;;;17.82;64.83;101160.02;1739151;82;21065;-82
2021/09/12 05:51:00;;;;;;;23.73;11.83;;;;;;;17.92;64.67;101160.04;1739389;82;21130;-86
2021/09/12 05:53:27;;;;;;;21.35;11.90;;;;;;;18.00;64.25;101155.44;1739094;82;20940;-83
2021/09/12 05:55:58;;;;;;;26.62;13.08;;;;;;;18.08;64.08;101164.75;1739514;82;20960;-89
2021/09/12 05:58:25;;;;;;;20.37;12.78;;;;;;;18.17;63.22;101158.67;1739056;82;20932;-81
2021/09/12 06:00:52;;;;;;;24.52;14.45;;;;;;;18.27;61.90;101162.97;1739032;82;21079;-82
2021/09/12 06:03:19;;;;;;;20.80;12.28;;;;;;;18.37;61.16;101161.17;1739185;82;21134;-84
2021/09/12 06:05:46;;;;;;;19.37;11.73;;;;;;;18.48;59.65;101157.07;1739052;82;21002;-83
2021/09/12 06:08:12;;;;;;;27.07;13.08;;;;;;;18.58;59.58;101163.66;1739234;82;21597;-88
2021/09/12 06:10:39;;;;;;;23.50;13.38;;;;;;;18.67;59.77;101168.55;1739135;82;21021;-83
2021/09/12 06:13:05;;;;;;;21.48;12.90;;;;;;;18.75;59.73;101159.02;1739329;82;21479;-88
2021/09/12 06:15:33;;;;;;;27.17;12.13;;;;;;;18.83;59.43;101173.58;1739573;82;21151;-89
2021/09/12 06:18:02;;;;;;;18.07;11.75;;;;;;;18.90;58.60;101175.16;1739206;82;20888;-80
2021/09/12 06:20:30;;;;;;;18.52;11.80;;;;;;;18.97;58.51;101174.45;1739064;82;21492;-82
2021/09/12 06:22:56;;;;;;;21.62;11.85;;;;;;;19.03;57.97;101176.52;1739160;82;20944;-83
2021/09/12 06:25:23;;;;;;;19.05;12.23;;;;;;;19.10;57.75;101174.62;1739016;82;21707;-83
2021/09/12 06:27:50;;;;;;;40.33;14.25;;;;;;;19.16;57.70;101176.67;1738350;82;21134;-87
2021/09/12 06:30:18;;;;;;;22.17;12.63;;;;;;;19.24;57.25;101184.19;1729086;82;21558;-88
2021/09/12 06:32:46;;;;;;;21.42;11.78;;;;;;;19.33;56.64;101170.67;1728925;83;21700;-81
2021/09/12 06:35:14;;;;;;;19.87;12.23;;;;;;;19.40;56.15;101172.58;1729035;83;21605;-86
2021/09/12 06:37:40;;;;;;;18.98;12.30;;;;;;;19.47;55.69;101171.03;1729363;83;20952;-84
2021/09/12 06:40:08;;;;;;;29.35;12.28;;;;;;;19.57;55.57;101174.94;1729035;83;21881;-81
2021/09/12 06:42:36;;;;;;;21.95;11.50;;;;;;;19.64;55.73;101174.70;1728978;83;20996;-86
2021/09/12 06:45:03;;;;;;;16.80;10.78;;;;;;;19.72;55.62;101181.88;1729369;83;21693;-86
2021/09/12 06:47:29;;;;;;;23.87;12.50;;;;;;;19.79;54.70;101187.70;1708302;83;20967;-87
2021/09/12 06:49:58;;;;;;;25.95;12.53;;;;;;;19.89;54.42;101186.33;1729253;82;21464;-83
2021/09/12 06:52:26;;;;;;;22.30;11.78;;;;;;;19.97;54.61;101187.74;1728990;83;21141;-80
2021/09/12 06:54:56;;;;;;;17.95;11.63;;;;;;;20.05;54.47;101187.33;1728940;82;21093;-82
2021/09/12 06:57:22;;;;;;;20.70;12.15;;;;;;;20.16;54.22;101186.29;1729135;83;21111;-83
2021/09/12 06:59:49;;;;;;;19.27;11.20;;;;;;;20.28;53.78;101189.55;1729056;83;21000;-82
2021/09/12 07:02:15;;;;;;;15.18;10.85;;;;;;;20.35;53.86;101186.17;1728976;83;21013;-80
2021/09/12 07:04:42;;;;;;;17.82;11.08;;;;;;;20.44;53.32;101185.25;1729223;83;21767;-84
2021/09/12 07:07:10;;;;;;;17.12;11.22;;;;;;;20.52;53.29;101187.94;1728957;82;20972;-87
2021/09/12 07:09:37;;;;;;;23.45;11.03;;;;;;;20.63;52.68;101197.44;1729090;83;20976;-84
2021/09/12 07:12:05;;;;;;;21.60;11.48;;;;;;;20.70;52.53;101190.57;1728954;83;38748;-80
2021/09/12 07:14:33;;;;;;;19.50;11.33;;;;;;;20.80;52.02;101187.84;1728944;82;20976;-82
2021/09/12 07:17:01;;;;;;;24.23;11.63;;;;;;;20.89;51.52;101187.74;1729203;83;21412;-89
2021/09/12 07:19:30;;;;;;;18.48;11.57;;;;;;;20.97;51.38;101187.78;1707558;83;20885;-83
2021/09/12 07:21:56;;;;;;;16.57;11.60;;;;;;;21.07;50.31;101191.14;1729084;83;21109;-82
2021/09/12 07:24:24;;;;;;;18.23;11.55;;;;;;;21.15;50.37;101187.77;1729015;83;21052;-81
2021/09/12 07:26:51;;;;;;;16.65;10.80;;;;;;;21.23;50.16;101181.69;1729047;83;20956;-81
2021/09/12 07:29:18;;;;;;;16.95;11.97;;;;;;;21.31;49.63;101181.74;1719210;83;21180;-84
2021/09/12 07:31:44;;;;;;;36.93;13.88;;;;;;;21.40;49.77;101182.11;1711118;83;21154;-86
2021/09/12 07:34:12;;;;;;;31.40;12.65;;;;;;;21.48;49.61;101170.25;1708527;83;21022;-81
2021/09/12 07:36:39;;;;;;;17.05;11.43;;;;;;;21.61;49.41;101171.45;1708518;84;20951;-82
2021/09/12 07:39:06;;;;;;;19.20;11.30;;;;;;;21.74;49.17;101167.53;1708609;84;20979;-85
2021/09/12 07:41:34;;;;;;;20.32;10.93;;;;;;;21.82;48.35;101171.04;1708303;84;21160;-82
2021/09/12 07:44:00;;;;;;;35.70;12.53;;;;;;;21.92;47.99;101165.13;1708497;84;20924;-80
2021/09/12 07:46:27;;;;;;;56.73;14.70;;;;;;;22.00;47.67;101167.80;1708435;83;20944;-81
2021/09/12 07:48:54;;;;;;;25.35;12.10;;;;;;;22.12;47.36;101165.16;1708325;84;20928;-81
2021/09/12 07:51:20;;;;;;;27.22;12.40;;;;;;;22.21;46.79;101164.67;1708403;84;20892;-82
2021/09/12 07:53:47;;;;;;;22.35;11.70;;;;;;;22.31;46.73;101163.19;1708349;84;21114;-82
2021/09/12 07:56:15;;;;;;;21.90;12.30;;;;;;;22.41;46.71;101166.01;1708526;84;21527;-82
2021/09/12 07:58:42;;;;;;;24.95;11.15;;;;;;;22.52;46.99;101156.44;1708518;84;20944;-89
2021/09/12 08:01:09;;;;;;;21.12;11.10;;;;;;;22.64;46.93;101162.20;1685754;83;20916;-85
2021/09/12 08:03:37;;;;;;;23.42;11.35;;;;;;;22.73;46.23;101163.87;1708559;83;21959;-84
2021/09/12 08:06:04;;;;;;;33.80;11.73;;;;;;;22.80;45.55;101159.56;1708519;84;21073;-85
2021/09/12 08:08:31;;;;;;;19.87;11.48;;;;;;;22.91;45.20;101159.72;1708471;83;21107;-81
2021/09/12 08:10:57;;;;;;;20.32;11.60;;;;;;;23.02;45.24;101161.50;1708539;84;21051;-82
2021/09/12 08:13:24;;;;;;;25.02;10.60;;;;;;;23.13;44.94;101158.99;1708629;84;20920;-87
2021/09/12 08:15:51;;;;;;;15.13;10.60;;;;;;;23.24;44.02;101159.94;1708655;84;21039;-83
2021/09/12 08:18:19;;;;;;;20.17;11.12;;;;;;;23.31;43.51;101157.43;1708489;84;21131;-82
2021/09/12 08:20:47;;;;;;;18.85;11.03;;;;;;;23.42;43.23;101149.95;1708429;84;20989;-82
2021/09/12 08:23:15;;;;;;;25.88;11.00;;;;;;;23.55;43.21;101146.74;1708575;84;20988;-84
2021/09/12 08:25:46;;;;;;;17.02;10.68;;;;;;;23.70;43.16;101149.00;1708653;84;21581;-80
2021/09/12 08:28:12;;;;;;;18.00;10.15;;;;;;;23.83;42.64;101144.45;1708929;84;21051;-84
2021/09/12 08:30:39;;;;;;;17.07;9.75;;;;;;;23.91;41.47;101143.89;1701901;82;21125;-82
2021/09/12 08:33:12;;;;;;;17.02;9.45;;;;;;;23.99;40.98;101138.55;1698950;84;21035;-80
2021/09/12 08:35:40;;;;;;;20.50;9.18;;;;;;;24.10;40.85;101142.09;1698056;84;21015;-86
2021/09/12 08:38:06;;;;;;;20.30;9.33;;;;;;;24.20;39.88;101133.94;1698455;84;21030;-82
2021/09/12 08:40:33;;;;;;;19.67;9.58;;;;;;;24.33;39.70;101133.33;1698521;84;21004;-83
2021/09/12 08:42:59;;;;;;;20.45;8.70;;;;;;;24.44;39.90;101130.27;1698578;84;21132;-81
2021/09/12 08:45:26;;;;;;;15.85;8.30;;;;;;;24.54;39.30;101132.13;1698417;84;20984;-82
2021/09/12 08:47:52;;;;;;;14.03;7.95;;;;;;;24.66;38.97;101131.55;1698516;84;21024;-81
2021/09/12 08:50:21;;;;;;;13.05;8.25;;;;;;;24.80;38.61;101127.73;1698506;84;21455;-81
2021/09/12 08:52:48;;;;;;;14.78;8.35;;;;;;;24.92;38.39;101129.78;1698876;84;21047;-84
2021/09/12 08:55:15;;;;;;;14.60;8.63;;;;;;;25.05;38.40;101123.33;1698742;84;21120;-84
2021/09/12 08:57:54;;;;;;;19.48;9.10;;;;;;;25.16;38.16;101124.20;1698815;84;20961;-82
2021/09/12 09:00:25;;;;;;;17.32;8.30;;;;;;;25.27;37.66;101121.59;1699104;84;20936;-83
2021/09/12 09:02:59;;;;;;;13.72;7.58;;;;;;;25.38;37.31;101122.42;1698789;84;20925;-81
2021/09/12 09:05:40;;;;;;;12.47;7.95;;;;;;;25.47;37.61;101119.98;1699022;84;20999;-82
2021/09/12 09:08:16;;;;;;;14.73;7.42;;;;;;;25.64;37.63;101114.80;1698949;84;21126;-80
2021/09/12 09:10:51;;;;;;;16.97;8.75;;;;;;;25.79;37.20;101122.71;1698900;84;21071;-83
2021/09/12 09:13:37;;;;;;;23.67;10.23;;;;;;;25.93;36.34;101114.36;1698613;84;20901;-80
2021/09/12 09:16:09;;;;;;;20.37;8.43;;;;;;;26.05;36.49;101109.67;1698735;84;20988;-82
2021/09/12 09:18:40;;;;;;;13.35;8.35;;;;;;;26.21;36.53;101113.94;1696259;84;21008;-80
2021/09/12 09:21:29;;;;;;;16.27;7.85;;;;;;;26.38;36.40;101111.83;1699009;84;21742;-86
2021/09/12 09:24:22;;;;;;;18.98;7.30;;;;;;;26.55;35.55;101114.52;1697825;84;21554;-80
2021/09/12 09:26:57;;;;;;;15.35;7.37;;;;;;;26.65;35.13;101106.98;1698705;84;20873;-79
2021/09/12 09:29:31;;;;;;;16.17;7.12;;;;;;;26.77;35.09;101106.25;1701170;83;21048;-81
2021/09/12 09:32:09;;;;;;;15.68;7.85;;;;;;;26.90;34.75;101108.73;1713601;82;20964;-81
2021/09/12 09:34:38;;;;;;;14.58;8.68;;;;;;;26.94;33.96;101100.64;1739129;82;21121;-80
2021/09/12 09:37:18;;;;;;;17.07;8.40;;;;;;;26.98;33.91;101096.06;1739015;82;20939;-80
2021/09/12 09:39:49;;;;;;;19.30;7.62;;;;;;;27.11;33.94;101101.97;1739062;82;21030;-80
2021/09/12 09:42:38;;;;;;;20.17;10.05;;;;;;;27.39;33.72;101101.36;1739089;82;21044;-79
2021/09/12 09:45:11;;;;;;;15.15;7.28;;;;;;;28.29;32.69;101092.94;1739205;82;21490;-79
2021/09/12 09:47:39;;;;;;;10.20;8.33;;;;;;;29.78;30.29;101092.64;1738804;82;21507;-83
2021/09/12 09:50:18;;;;;;;11.53;7.30;;;;;;;30.99;28.24;101089.53;1739092;82;21459;-80
2021/09/12 09:52:51;;;;;;;22.48;8.08;;;;;;;31.93;26.65;101084.33;1739163;82;21605;-78
2021/09/12 09:55:21;;;;;;;14.07;8.25;;;;;;;32.92;25.96;101083.41;1738991;82;21466;-82
2021/09/12 09:57:52;;;;;;;13.28;7.78;;;;;;;34.08;24.41;101082.88;1738569;82;20964;-82
2021/09/12 10:00:20;;;;;;;13.78;7.35;;;;;;;34.82;22.83;101086.96;1739213;82;21109;-80
2021/09/12 10:02:49;;;;;;;15.00;7.17;;;;;;;35.42;22.40;101078.77;1739125;82;20889;-81
2021/09/12 10:05:20;;;;;;;10.88;7.42;;;;;;;36.12;21.49;101080.52;1739097;82;20947;-81
2021/09/12 10:07:48;;;;;;;14.20;7.17;;;;;;;36.84;20.79;101072.55;1739142;82;20995;-81
2021/09/12 10:10:16;;;;;;;14.05;7.75;;;;;;;37.65;19.71;101081.45;1739026;82;20983;-79
2021/09/12 10:12:48;;;;;;;16.45;7.53;;;;;;;38.50;18.98;101075.16;1738798;82;21774;-81
2021/09/12 10:15:22;;;;;;;13.90;7.33;;;;;;;39.48;17.48;101073.33;1738912;82;20983;-80
2021/09/12 10:17:48;;;;;;;9.80;7.40;;;;;;;39.66;16.50;101069.92;1738938;82;20941;-82
2021/09/12 10:20:17;;;;;;;15.60;7.90;;;;;;;39.72;16.56;101064.49;1739010;82;21474;-79
2021/09/12 10:23:01;;;;;;;;;;;;;;;39.82;16.37;101063.05;1741613;82;21001;-81
2021/09/12 10:25:59;;;;;;;13.10;6.83;;;;;;;40.37;16.18;101064.42;1739046;82;21129;-80
2021/09/12 10:28:36;;;;;;;13.88;7.15;;;;;;;40.74;15.44;101054.20;1738949;82;20991;-82
2021/09/12 10:31:30;;;;;;;11.63;8.13;;;;;;;41.08;15.01;101057.55;1730081;82;21019;-80
2021/09/12 10:34:13;;;;;;;17.95;10.23;;;;;;;40.79;14.88;101047.31;1729010;83;20932;-79
2021/09/12 10:36:43;;;;;;;13.95;8.38;;;;;;;39.61;15.65;101050.14;1729250;82;20989;-79
2021/09/12 10:39:32;;;;;;;11.57;8.75;;;;;;;38.47;16.25;101043.17;1729000;83;21867;-84
2021/09/12 10:42:15;;;;;;;11.33;7.75;;;;;;;37.45;16.90;101047.86;1729156;83;20987;-82
2021/09/12 10:44:42;;;;;;;14.10;8.10;;;;;;;36.14;17.70;101037.83;1728503;82;21024;-80
2021/09/12 10:47:11;;;;;;;15.48;7.65;;;;;;;34.92;18.54;101041.77;1729209;82;20996;-78
2021/09/12 10:49:40;;;;;;;21.10;9.80;;;;;;;34.09;19.33;101033.87;1729364;82;20929;-82
2021/09/12 10:52:10;;;;;;;11.12;9.30;;;;;;;33.63;20.00;101030.48;1729109;83;21112;-80
2021/09/12 10:55:07;;;;;;;13.08;8.15;;;;;;;33.56;20.21;101040.55;1728877;83;20972;-81
2021/09/12 10:57:37;;;;;;;20.02;9.95;;;;;;;33.42;20.62;101040.55;1685082;82;21527;-79
2021/09/12 11:00:10;;;;;;;12.80;8.70;;;;;;;33.14;21.25;101045.95;1729141;83;20960;-81
2021/09/12 11:02:42;;;;;;;13.15;9.48;;;;;;;32.93;21.48;101035.31;1729065;83;20997;-82
2021/09/12 11:05:26;;;;;;;17.23;10.25;;;;;;;32.54;21.08;101034.21;1728748;82;21875;-83
2021/09/12 11:07:55;;;;;;;16.65;9.58;;;;;;;32.03;21.81;101028.72;1729247;83;21495;-81
2021/09/12 11:10:41;;;;;;;12.95;9.33;;;;;;;31.71;22.43;101024.20;1729172;82;20984;-82
2021/09/12 11:13:08;;;;;;;15.10;9.33;;;;;;;31.38;22.30;101025.48;1729152;83;21444;-83
2021/09/12 11:15:38;;;;;;;13.35;8.50;;;;;;;31.22;23.03;101026.64;1729003;83;21056;-79
2021/09/12 11:18:06;;;;;;;28.20;12.13;;;;;;;31.24;23.47;101020.00;1729133;82;20944;-80
2021/09/12 11:20:42;;;;;;;16.37;9.08;;;;;;;31.45;23.44;101014.66;1728984;82;20959;-80
2021/09/12 11:23:09;;;;;;;12.13;9.40;;;;;;;31.76;23.15;101013.05;1728998;83;21054;-80